createdAt,value
2017-03-17T00:00:55.270Z,0
2017-03-17T00:01:55.301Z,0
2017-03-17T00:02:55.300Z,0
2017-03-17T00:03:55.395Z,0
2017-03-17T00:04:55.514Z,0
2017-03-17T00:05:55.551Z,0
2017-03-17T00:06:55.376Z,0
2017-03-17T00:07:55.406Z,0
2017-03-17T00:08:55.408Z,0
2017-03-17T00:09:55.386Z,0
2017-03-17T00:10:55.917Z,0
2017-03-17T00:11:56.482Z,0
2017-03-17T00:12:56.692Z,0
2017-03-17T00:13:56.478Z,0
2017-03-17T00:14:57.084Z,0
2017-03-17T00:15:57.094Z,0
2017-03-17T00:16:57.102Z,0
2017-03-17T00:17:57.290Z,0
2017-03-17T00:18:57.141Z,0
2017-03-17T00:19:57.219Z,0
2017-03-17T00:20:57.360Z,0
2017-03-17T00:21:57.187Z,0
2017-03-17T00:22:57.790Z,0
2017-03-17T00:23:57.759Z,0
2017-03-17T00:24:57.754Z,0
2017-03-17T00:25:58.301Z,0
2017-03-17T00:26:58.314Z,0
2017-03-17T00:27:59.111Z,0
2017-03-17T00:28:59.058Z,0
2017-03-17T00:29:59.603Z,0
2017-03-17T00:30:59.619Z,0
2017-03-17T00:32:00.198Z,0
2017-03-17T00:33:00.197Z,0
2017-03-17T00:34:00.391Z,0
2017-03-17T00:35:00.214Z,0
2017-03-17T00:36:00.771Z,0
2017-03-17T00:37:00.824Z,0
2017-03-17T00:38:00.816Z,0
2017-03-17T00:39:00.819Z,0
2017-03-17T00:40:01.413Z,0
2017-03-17T00:41:01.354Z,0
2017-03-17T00:42:01.902Z,0
2017-03-17T00:43:01.943Z,0
2017-03-17T00:44:01.976Z,0
2017-03-17T00:45:01.996Z,0
2017-03-17T00:46:02.045Z,0
2017-03-17T00:47:02.028Z,0
2017-03-17T00:48:02.042Z,0
2017-03-17T00:49:02.060Z,0
2017-03-17T00:50:02.644Z,0
2017-03-17T00:51:02.615Z,0
2017-03-17T00:52:02.693Z,0
2017-03-17T00:53:02.741Z,0
2017-03-17T00:54:02.741Z,0
2017-03-17T00:55:02.736Z,0
2017-03-17T00:56:02.932Z,0
2017-03-17T00:57:02.745Z,0
2017-03-17T00:58:03.280Z,0
2017-03-17T00:59:03.329Z,0
2017-03-17T01:00:03.304Z,0
2017-03-17T01:01:03.804Z,0
2017-03-17T01:02:04.316Z,0
2017-03-17T01:03:04.917Z,0
2017-03-17T01:04:05.156Z,0
2017-03-17T01:05:05.021Z,0
2017-03-17T01:06:04.987Z,0
2017-03-17T01:07:05.031Z,0
2017-03-17T01:08:05.052Z,0
2017-03-17T01:09:05.091Z,0
2017-03-17T01:10:05.077Z,0
2017-03-17T01:11:05.308Z,0
2017-03-17T01:12:05.134Z,0
2017-03-17T01:13:05.177Z,0
2017-03-17T01:14:05.210Z,0
2017-03-17T01:15:05.241Z,0
2017-03-17T01:16:05.997Z,0
2017-03-17T01:17:05.289Z,0
2017-03-17T01:18:05.282Z,0
2017-03-17T01:19:05.301Z,0
2017-03-17T01:20:05.620Z,0
2017-03-17T01:21:05.375Z,0
2017-03-17T01:22:05.372Z,0
2017-03-17T01:23:05.994Z,0
2017-03-17T01:24:06.030Z,0
2017-03-17T01:25:06.052Z,0
2017-03-17T01:26:06.007Z,0
2017-03-17T01:27:06.044Z,0
2017-03-17T01:28:06.040Z,0
2017-03-17T01:29:06.313Z,0
2017-03-17T01:30:06.115Z,0
2017-03-17T01:31:06.132Z,0
2017-03-17T01:32:06.221Z,0
2017-03-17T01:33:06.176Z,0
2017-03-17T01:34:06.222Z,0
2017-03-17T01:35:06.274Z,0
2017-03-17T01:36:06.244Z,0
2017-03-17T01:37:06.867Z,0
2017-03-17T01:38:06.798Z,0
2017-03-17T01:39:07.364Z,0
2017-03-17T01:40:07.415Z,0
2017-03-17T01:41:07.404Z,0
2017-03-17T01:42:07.410Z,0
2017-03-17T01:43:07.433Z,0
2017-03-17T01:44:08.000Z,0
2017-03-17T01:45:08.012Z,0
2017-03-17T01:46:08.531Z,0
2017-03-17T01:47:09.263Z,0
2017-03-17T01:48:09.126Z,0
2017-03-17T01:49:09.171Z,0
2017-03-17T01:50:09.205Z,0
2017-03-17T01:51:09.195Z,0
2017-03-17T01:52:09.261Z,0
2017-03-17T01:53:09.214Z,0
2017-03-17T01:54:09.814Z,0
2017-03-17T01:55:09.800Z,0
2017-03-17T01:56:09.962Z,0
2017-03-17T01:57:09.847Z,0
2017-03-17T01:58:09.840Z,0
2017-03-17T01:59:10.439Z,0
2017-03-17T02:00:10.415Z,0
2017-03-17T02:01:11.103Z,0
2017-03-17T02:02:11.005Z,0
2017-03-17T02:03:11.043Z,0
2017-03-17T02:04:11.104Z,0
2017-03-17T02:05:11.104Z,0
2017-03-17T02:06:11.126Z,0
2017-03-17T02:07:11.112Z,0
2017-03-17T02:08:11.651Z,0
2017-03-17T02:09:11.730Z,0
2017-03-17T02:10:11.933Z,0
2017-03-17T02:11:11.732Z,0
2017-03-17T02:12:11.847Z,0
2017-03-17T02:13:11.809Z,0
2017-03-17T02:14:11.815Z,0
2017-03-17T02:15:12.035Z,0
2017-03-17T02:16:11.842Z,0
2017-03-17T02:17:12.396Z,0
2017-03-17T02:18:12.499Z,0
2017-03-17T02:19:12.415Z,0
2017-03-17T02:20:13.480Z,0
2017-03-17T02:21:12.989Z,0
2017-03-17T02:22:12.975Z,0
2017-03-17T02:23:14.205Z,0
2017-03-17T02:24:14.195Z,0
2017-03-17T02:25:14.989Z,0
2017-03-17T02:26:14.251Z,0
2017-03-17T02:27:14.302Z,0
2017-03-17T02:28:14.351Z,0
2017-03-17T02:29:14.305Z,0
2017-03-17T02:30:14.923Z,0
2017-03-17T02:31:14.936Z,0
2017-03-17T02:32:14.895Z,0
2017-03-17T02:33:14.879Z,0
2017-03-17T02:34:15.638Z,0
2017-03-17T02:35:15.519Z,0
2017-03-17T02:36:15.533Z,0
2017-03-17T02:37:15.642Z,0
2017-03-17T02:38:15.500Z,0
2017-03-17T02:39:16.216Z,0
2017-03-17T02:40:16.366Z,0
2017-03-17T02:41:16.234Z,0
2017-03-17T02:42:16.255Z,0
2017-03-17T02:43:16.261Z,0
2017-03-17T02:44:16.356Z,0
2017-03-17T02:45:16.319Z,0
2017-03-17T02:46:16.336Z,0
2017-03-17T02:47:16.387Z,0
2017-03-17T02:48:16.404Z,0
2017-03-17T02:49:16.820Z,0
2017-03-17T02:50:16.485Z,0
2017-03-17T02:51:16.495Z,0
2017-03-17T02:52:16.607Z,0
2017-03-17T02:53:16.536Z,0
2017-03-17T02:54:16.557Z,0
2017-03-17T02:55:16.617Z,0
2017-03-17T02:56:16.584Z,0
2017-03-17T02:57:17.110Z,0
2017-03-17T02:58:17.181Z,0
2017-03-17T02:59:17.206Z,0
2017-03-17T03:00:17.249Z,0
2017-03-17T03:01:17.240Z,0
2017-03-17T03:02:17.293Z,0
2017-03-17T03:03:17.285Z,0
2017-03-17T03:04:17.285Z,0
2017-03-17T03:05:17.844Z,0
2017-03-17T03:06:17.929Z,0
2017-03-17T03:07:17.917Z,0
2017-03-17T03:08:17.888Z,0
2017-03-17T03:09:18.445Z,0
2017-03-17T03:10:18.972Z,0
2017-03-17T03:11:19.504Z,0
2017-03-17T03:12:19.516Z,0
2017-03-17T03:13:20.123Z,0
2017-03-17T03:14:20.140Z,0
2017-03-17T03:15:20.088Z,0
2017-03-17T03:16:20.606Z,0
2017-03-17T03:17:21.287Z,0
2017-03-17T03:18:21.266Z,0
2017-03-17T03:19:21.267Z,0
2017-03-17T03:20:21.244Z,0
2017-03-17T03:21:21.268Z,0
2017-03-17T03:22:21.346Z,0
2017-03-17T03:23:21.355Z,0
2017-03-17T03:24:21.374Z,0
2017-03-17T03:25:21.477Z,0
2017-03-17T03:26:21.395Z,0
2017-03-17T03:27:21.400Z,0
2017-03-17T03:28:21.453Z,0
2017-03-17T03:29:21.435Z,0
2017-03-17T03:30:22.076Z,0
2017-03-17T03:31:21.977Z,0
2017-03-17T03:32:22.535Z,0
2017-03-17T03:33:22.585Z,0
2017-03-17T03:34:22.584Z,0
2017-03-17T03:35:22.678Z,0
2017-03-17T03:36:22.610Z,0
2017-03-17T03:37:22.677Z,0
2017-03-17T03:38:22.658Z,0
2017-03-17T03:39:22.826Z,0
2017-03-17T03:40:22.780Z,0
2017-03-17T03:41:22.796Z,0
2017-03-17T03:42:22.777Z,0
2017-03-17T03:43:22.803Z,0
2017-03-17T03:44:22.844Z,0
2017-03-17T03:45:23.176Z,0
2017-03-17T03:46:22.858Z,0
2017-03-17T03:47:22.974Z,0
2017-03-17T03:48:22.945Z,0
2017-03-17T03:49:22.981Z,0
2017-03-17T03:50:22.961Z,0
2017-03-17T03:51:23.574Z,0
2017-03-17T03:52:23.671Z,0
2017-03-17T03:53:23.546Z,0
2017-03-17T03:54:24.081Z,0
2017-03-17T03:55:24.153Z,0
2017-03-17T03:56:24.165Z,0
2017-03-17T03:57:24.184Z,0
2017-03-17T03:58:24.176Z,0
2017-03-17T03:59:24.700Z,0
2017-03-17T04:00:24.749Z,0
2017-03-17T04:01:24.777Z,0
2017-03-17T04:02:24.762Z,0
2017-03-17T04:03:25.307Z,0
2017-03-17T04:04:25.347Z,0
2017-03-17T04:05:25.495Z,0
2017-03-17T04:06:25.531Z,0
2017-03-17T04:07:25.397Z,0
2017-03-17T04:08:26.000Z,0
2017-03-17T04:09:25.952Z,0
2017-03-17T04:10:25.999Z,0
2017-03-17T04:11:26.057Z,0
2017-03-17T04:12:26.034Z,0
2017-03-17T04:13:26.119Z,0
2017-03-17T04:14:26.121Z,0
2017-03-17T04:15:26.157Z,0
2017-03-17T04:16:26.133Z,0
2017-03-17T04:17:26.177Z,0
2017-03-17T04:18:26.184Z,0
2017-03-17T04:19:26.234Z,0
2017-03-17T04:20:26.262Z,0
2017-03-17T04:21:26.292Z,0
2017-03-17T04:22:26.494Z,0
2017-03-17T04:23:26.327Z,0
2017-03-17T04:24:26.350Z,0
2017-03-17T04:25:26.356Z,0
2017-03-17T04:26:26.917Z,0
2017-03-17T04:27:26.946Z,0
2017-03-17T04:28:26.937Z,0
2017-03-17T04:29:26.995Z,0
2017-03-17T04:30:26.974Z,0
2017-03-17T04:31:27.487Z,0
2017-03-17T04:32:28.084Z,0
2017-03-17T04:33:28.091Z,0
2017-03-17T04:34:28.183Z,0
2017-03-17T04:35:28.080Z,0
2017-03-17T04:36:28.676Z,0
2017-03-17T04:37:28.664Z,0
2017-03-17T04:38:28.737Z,0
2017-03-17T04:39:28.724Z,0
2017-03-17T04:40:28.743Z,0
2017-03-17T04:41:28.725Z,0
2017-03-17T04:42:29.348Z,0
2017-03-17T04:43:29.286Z,0
2017-03-17T04:44:29.344Z,0
2017-03-17T04:45:29.355Z,0
2017-03-17T04:46:29.351Z,0
2017-03-17T04:47:29.920Z,0
2017-03-17T04:48:29.928Z,0
2017-03-17T04:49:29.926Z,0
2017-03-17T04:50:30.533Z,0
2017-03-17T04:51:30.518Z,0
2017-03-17T04:52:30.743Z,0
2017-03-17T04:53:30.574Z,0
2017-03-17T04:54:30.610Z,0
2017-03-17T04:55:30.588Z,0
2017-03-17T04:56:31.183Z,0
2017-03-17T04:57:31.155Z,0
2017-03-17T04:58:31.156Z,0
2017-03-17T04:59:31.751Z,0
2017-03-17T05:00:31.877Z,0
2017-03-17T05:01:32.297Z,0
2017-03-17T05:02:32.682Z,0
2017-03-17T05:03:33.088Z,0
2017-03-17T05:04:33.480Z,0
2017-03-17T05:05:33.876Z,0
2017-03-17T05:06:34.282Z,0
2017-03-17T05:07:34.677Z,0
2017-03-17T05:08:35.049Z,0
2017-03-17T05:09:35.452Z,0
2017-03-17T05:10:35.848Z,5
2017-03-17T05:11:36.235Z,5
2017-03-17T05:12:36.631Z,5
2017-03-17T05:13:37.045Z,5
2017-03-17T05:14:37.438Z,5
2017-03-17T05:15:37.831Z,5
2017-03-17T05:16:38.233Z,5
2017-03-17T05:17:38.617Z,5
2017-03-17T05:18:39.016Z,10
2017-03-17T05:19:39.415Z,10
2017-03-17T05:20:39.802Z,10
2017-03-17T05:21:40.182Z,10
2017-03-17T05:22:40.587Z,10
2017-03-17T05:23:40.976Z,15
2017-03-17T05:24:41.366Z,15
2017-03-17T05:25:41.756Z,15
2017-03-17T05:26:42.151Z,20
2017-03-17T05:27:42.552Z,20
2017-03-17T05:28:42.952Z,20
2017-03-17T05:29:43.343Z,25
2017-03-17T05:30:43.722Z,25
2017-03-17T05:31:44.120Z,25
2017-03-17T05:32:44.516Z,30
2017-03-17T05:33:44.911Z,30
2017-03-17T05:34:45.289Z,35
2017-03-17T05:35:45.697Z,30
2017-03-17T05:36:46.091Z,30
2017-03-17T05:37:46.490Z,35
2017-03-17T05:38:46.916Z,40
2017-03-17T05:39:47.317Z,40
2017-03-17T05:40:47.714Z,40
2017-03-17T05:41:48.111Z,50
2017-03-17T05:42:48.513Z,45
2017-03-17T05:43:48.925Z,45
2017-03-17T05:44:49.339Z,45
2017-03-17T05:45:49.730Z,40
2017-03-17T05:46:50.123Z,35
2017-03-17T05:47:50.538Z,35
2017-03-17T05:48:50.917Z,35
2017-03-17T05:49:51.311Z,40
2017-03-17T05:50:51.708Z,40
2017-03-17T05:51:52.107Z,45
2017-03-17T05:52:52.506Z,50
2017-03-17T05:53:52.908Z,55
2017-03-17T05:54:53.346Z,55
2017-03-17T05:55:53.744Z,50
2017-03-17T05:56:54.137Z,45
2017-03-17T05:57:54.541Z,50
2017-03-17T05:58:54.938Z,50
2017-03-17T05:59:55.338Z,50
2017-03-17T06:00:55.733Z,50
2017-03-17T06:01:56.133Z,55
2017-03-17T06:02:56.529Z,60
2017-03-17T06:03:56.935Z,70
2017-03-17T06:04:57.323Z,70
2017-03-17T06:05:57.738Z,70
2017-03-17T06:06:58.137Z,80
2017-03-17T06:07:58.535Z,85
2017-03-17T06:08:58.930Z,95
2017-03-17T06:09:59.341Z,100
2017-03-17T06:10:59.736Z,105
2017-03-17T06:12:00.126Z,120
2017-03-17T06:13:00.525Z,140
2017-03-17T06:14:01.439Z,165
2017-03-17T06:15:01.451Z,185
2017-03-17T06:16:01.463Z,180
2017-03-17T06:17:01.491Z,175
2017-03-17T06:18:01.512Z,175
2017-03-17T06:19:01.555Z,175
2017-03-17T06:20:01.614Z,200
2017-03-17T06:21:01.620Z,205
2017-03-17T06:22:01.618Z,200
2017-03-17T06:23:01.659Z,190
2017-03-17T06:24:01.695Z,170
2017-03-17T06:25:01.722Z,145
2017-03-17T06:26:01.740Z,125
2017-03-17T06:27:01.771Z,120
2017-03-17T06:28:01.801Z,115
2017-03-17T06:29:01.827Z,110
2017-03-17T06:30:01.850Z,110
2017-03-17T06:31:01.883Z,105
2017-03-17T06:32:01.905Z,100
2017-03-17T06:33:01.943Z,95
2017-03-17T06:34:01.969Z,90
2017-03-17T06:35:02.007Z,100
2017-03-17T06:36:02.002Z,110
2017-03-17T06:37:02.056Z,110
2017-03-17T06:38:02.090Z,115
2017-03-17T06:39:02.128Z,105
2017-03-17T06:40:02.150Z,115
2017-03-17T06:41:02.174Z,100
2017-03-17T06:42:02.193Z,95
2017-03-17T06:43:02.220Z,100
2017-03-17T06:44:02.262Z,110
2017-03-17T06:45:02.282Z,125
2017-03-17T06:46:02.306Z,100
2017-03-17T06:47:02.336Z,80
2017-03-17T06:48:02.344Z,80
2017-03-17T06:49:02.399Z,100
2017-03-17T06:50:02.406Z,110
2017-03-17T06:51:02.443Z,110
2017-03-17T06:52:02.472Z,95
2017-03-17T06:53:02.510Z,75
2017-03-17T06:54:02.538Z,65
2017-03-17T06:55:02.553Z,60
2017-03-17T06:56:02.611Z,60
2017-03-17T06:57:02.645Z,75
2017-03-17T06:58:02.662Z,85
2017-03-17T06:59:02.682Z,90
2017-03-17T07:00:02.717Z,90
2017-03-17T07:01:02.740Z,85
2017-03-17T07:02:02.756Z,110
2017-03-17T07:03:02.809Z,120
2017-03-17T07:04:02.810Z,125
2017-03-17T07:05:02.863Z,110
2017-03-17T07:06:02.870Z,95
2017-03-17T07:07:02.908Z,90
2017-03-17T07:08:02.941Z,80
2017-03-17T07:09:02.946Z,70
2017-03-17T07:10:03.003Z,75
2017-03-17T07:11:03.021Z,70
2017-03-17T07:12:03.050Z,65
2017-03-17T07:13:03.081Z,60
2017-03-17T07:14:03.114Z,50
2017-03-17T07:15:03.150Z,50
2017-03-17T07:16:03.175Z,45
2017-03-17T07:17:03.203Z,45
2017-03-17T07:18:03.222Z,40
2017-03-17T07:19:03.262Z,40
2017-03-17T07:20:03.289Z,45
2017-03-17T07:21:03.302Z,45
2017-03-17T07:22:03.346Z,35
2017-03-17T07:23:03.411Z,35
2017-03-17T07:24:03.420Z,40
2017-03-17T07:25:03.453Z,45
2017-03-17T07:26:03.478Z,45
2017-03-17T07:27:03.484Z,50
2017-03-17T07:28:03.537Z,55
2017-03-17T07:29:03.552Z,50
2017-03-17T07:30:03.570Z,45
2017-03-17T07:31:03.949Z,45
2017-03-17T07:32:03.620Z,50
2017-03-17T07:33:03.665Z,50
2017-03-17T07:34:03.707Z,50
2017-03-17T07:35:03.717Z,50
2017-03-17T07:36:03.895Z,55
2017-03-17T07:37:03.773Z,60
2017-03-17T07:38:03.805Z,65
2017-03-17T07:39:03.850Z,70
2017-03-17T07:40:03.855Z,80
2017-03-17T07:41:03.974Z,90
2017-03-17T07:42:03.919Z,100
2017-03-17T07:43:03.962Z,105
2017-03-17T07:44:04.002Z,120
2017-03-17T07:45:04.008Z,130
2017-03-17T07:46:04.187Z,135
2017-03-17T07:47:04.047Z,135
2017-03-17T07:48:04.101Z,150
2017-03-17T07:49:04.140Z,150
2017-03-17T07:50:04.153Z,145
2017-03-17T07:51:04.274Z,145
2017-03-17T07:52:04.220Z,145
2017-03-17T07:53:04.245Z,145
2017-03-17T07:54:04.274Z,155
2017-03-17T07:55:04.311Z,170
2017-03-17T07:56:04.314Z,180
2017-03-17T07:57:04.362Z,200
2017-03-17T07:58:04.391Z,215
2017-03-17T07:59:04.408Z,240
2017-03-17T08:00:04.461Z,265
2017-03-17T08:01:04.496Z,230
2017-03-17T08:02:04.506Z,190
2017-03-17T08:03:04.551Z,200
2017-03-17T08:04:04.571Z,225
2017-03-17T08:05:04.607Z,225
2017-03-17T08:06:04.680Z,245
2017-03-17T08:07:04.670Z,285
2017-03-17T08:08:04.694Z,300
2017-03-17T08:09:04.725Z,300
2017-03-17T08:10:04.753Z,300
2017-03-17T08:11:04.789Z,275
2017-03-17T08:12:04.812Z,305
2017-03-17T08:13:04.844Z,330
2017-03-17T08:14:04.877Z,305
2017-03-17T08:15:04.908Z,300
2017-03-17T08:16:04.934Z,270
2017-03-17T08:17:04.952Z,250
2017-03-17T08:18:04.989Z,265
2017-03-17T08:19:05.012Z,330
2017-03-17T08:20:05.045Z,395
2017-03-17T08:21:05.079Z,435
2017-03-17T08:22:05.105Z,435
2017-03-17T08:23:05.157Z,385
2017-03-17T08:24:05.166Z,390
2017-03-17T08:25:05.222Z,450
2017-03-17T08:26:05.226Z,460
2017-03-17T08:27:05.270Z,445
2017-03-17T08:28:05.308Z,495
2017-03-17T08:29:05.303Z,555
2017-03-17T08:30:05.352Z,570
2017-03-17T08:31:05.371Z,515
2017-03-17T08:32:05.400Z,515
2017-03-17T08:33:05.449Z,540
2017-03-17T08:34:05.477Z,595
2017-03-17T08:35:05.507Z,670
2017-03-17T08:36:05.542Z,700
2017-03-17T08:37:05.572Z,760
2017-03-17T08:38:05.601Z,990
2017-03-17T08:39:05.623Z,1370
2017-03-17T08:40:05.655Z,1475
2017-03-17T08:41:05.705Z,1125
2017-03-17T08:42:05.715Z,1030
2017-03-17T08:43:05.780Z,995
2017-03-17T08:44:05.810Z,930
2017-03-17T08:45:05.854Z,1000
2017-03-17T08:46:05.850Z,925
2017-03-17T08:47:05.888Z,865
2017-03-17T08:48:05.935Z,1065
2017-03-17T08:49:05.986Z,1230
2017-03-17T08:50:05.995Z,1370
2017-03-17T08:51:06.032Z,1465
2017-03-17T08:52:06.062Z,1380
2017-03-17T08:53:06.108Z,1570
2017-03-17T08:54:06.127Z,1530
2017-03-17T08:55:06.174Z,1360
2017-03-17T08:56:06.237Z,1310
2017-03-17T08:57:06.443Z,1305
2017-03-17T08:58:06.285Z,1320
2017-03-17T08:59:06.319Z,1170
2017-03-17T09:00:06.358Z,1235
2017-03-17T09:01:06.360Z,1235
2017-03-17T09:02:06.424Z,1140
2017-03-17T09:03:06.466Z,1035
2017-03-17T09:04:06.495Z,1070
2017-03-17T09:05:06.554Z,1140
2017-03-17T09:06:06.572Z,1145
2017-03-17T09:07:06.605Z,1310
2017-03-17T09:08:06.647Z,1365
2017-03-17T09:09:06.690Z,1315
2017-03-17T09:10:06.739Z,1465
2017-03-17T09:11:06.751Z,1350
2017-03-17T09:12:06.794Z,1455
2017-03-17T09:13:06.820Z,1130
2017-03-17T09:14:06.864Z,890
2017-03-17T09:15:06.900Z,715
2017-03-17T09:16:06.930Z,775
2017-03-17T09:17:06.989Z,820
2017-03-17T09:18:07.022Z,1170
2017-03-17T09:19:07.059Z,810
2017-03-17T09:20:07.102Z,620
2017-03-17T09:21:07.145Z,580
2017-03-17T09:22:07.159Z,535
2017-03-17T09:23:07.203Z,485
2017-03-17T09:24:07.240Z,470
2017-03-17T09:25:07.276Z,425
2017-03-17T09:26:07.316Z,450
2017-03-17T09:27:07.365Z,430
2017-03-17T09:28:07.395Z,325
2017-03-17T09:29:07.469Z,320
2017-03-17T09:30:07.462Z,320
2017-03-17T09:31:07.496Z,330
2017-03-17T09:32:07.530Z,370
2017-03-17T09:33:07.575Z,385
2017-03-17T09:34:07.602Z,385
2017-03-17T09:35:07.633Z,390
2017-03-17T09:36:07.669Z,370
2017-03-17T09:37:07.707Z,380
2017-03-17T09:38:07.735Z,385
2017-03-17T09:39:07.777Z,405
2017-03-17T09:40:07.847Z,410
2017-03-17T09:41:07.876Z,405
2017-03-17T09:42:07.869Z,405
2017-03-17T09:43:07.907Z,400
2017-03-17T09:44:07.945Z,380
2017-03-17T09:45:07.983Z,365
2017-03-17T09:46:08.022Z,370
2017-03-17T09:47:08.047Z,410
2017-03-17T09:48:08.084Z,490
2017-03-17T09:49:08.114Z,490
2017-03-17T09:50:08.156Z,480
2017-03-17T09:51:08.189Z,470
2017-03-17T09:52:08.222Z,450
2017-03-17T09:53:08.257Z,440
2017-03-17T09:54:08.287Z,435
2017-03-17T09:55:08.319Z,490
2017-03-17T09:56:08.346Z,505
2017-03-17T09:57:08.380Z,490
2017-03-17T09:58:08.426Z,485
2017-03-17T09:59:08.463Z,530
2017-03-17T10:00:08.698Z,480
2017-03-17T10:01:08.526Z,390
2017-03-17T10:02:08.571Z,350
2017-03-17T10:03:08.629Z,300
2017-03-17T10:04:08.619Z,270
2017-03-17T10:05:08.671Z,295
2017-03-17T10:06:08.702Z,250
2017-03-17T10:07:08.720Z,260
2017-03-17T10:08:08.734Z,260
2017-03-17T10:09:08.797Z,280
2017-03-17T10:10:08.839Z,240
2017-03-17T10:11:08.888Z,185
2017-03-17T10:12:09.083Z,170
2017-03-17T10:13:08.927Z,150
2017-03-17T10:14:08.959Z,115
2017-03-17T10:15:09.210Z,120
2017-03-17T10:16:09.016Z,110
2017-03-17T10:17:09.030Z,95
2017-03-17T10:18:09.079Z,95
2017-03-17T10:19:09.130Z,90
2017-03-17T10:20:09.172Z,75
2017-03-17T10:21:09.186Z,80
2017-03-17T10:22:09.205Z,95
2017-03-17T10:23:09.246Z,105
2017-03-17T10:24:09.277Z,105
2017-03-17T10:25:09.340Z,95
2017-03-17T10:26:09.333Z,100
2017-03-17T10:27:09.380Z,135
2017-03-17T10:28:09.394Z,145
2017-03-17T10:29:09.472Z,110
2017-03-17T10:30:09.673Z,85
2017-03-17T10:31:09.488Z,85
2017-03-17T10:32:09.528Z,80
2017-03-17T10:33:09.556Z,75
2017-03-17T10:34:09.586Z,80
2017-03-17T10:35:09.731Z,90
2017-03-17T10:36:09.661Z,100
2017-03-17T10:37:09.669Z,95
2017-03-17T10:38:09.723Z,90
2017-03-17T10:39:09.763Z,95
2017-03-17T10:40:09.788Z,85
2017-03-17T10:41:09.816Z,85
2017-03-17T10:42:09.825Z,90
2017-03-17T10:43:09.879Z,100
2017-03-17T10:44:09.900Z,115
2017-03-17T10:45:09.969Z,105
2017-03-17T10:46:09.973Z,120
2017-03-17T10:47:10.003Z,120
2017-03-17T10:48:10.022Z,120
2017-03-17T10:49:10.049Z,120
2017-03-17T10:50:10.074Z,105
2017-03-17T10:51:10.112Z,100
2017-03-17T10:52:10.146Z,100
2017-03-17T10:53:10.176Z,100
2017-03-17T10:54:10.225Z,100
2017-03-17T10:55:10.258Z,95
2017-03-17T10:56:10.275Z,90
2017-03-17T10:57:10.314Z,90
2017-03-17T10:58:10.326Z,105
2017-03-17T10:59:10.376Z,115
2017-03-17T11:00:10.394Z,100
2017-03-17T11:01:10.420Z,100
2017-03-17T11:02:10.444Z,100
2017-03-17T11:03:10.472Z,100
2017-03-17T11:04:10.530Z,100
2017-03-17T11:05:10.545Z,90
2017-03-17T11:06:10.577Z,90
2017-03-17T11:07:10.608Z,90
2017-03-17T11:08:10.641Z,100
2017-03-17T11:09:10.691Z,105
2017-03-17T11:10:10.741Z,105
2017-03-17T11:11:10.740Z,120
2017-03-17T11:12:10.773Z,130
2017-03-17T11:13:10.789Z,140
2017-03-17T11:14:10.864Z,150
2017-03-17T11:15:10.874Z,155
2017-03-17T11:16:10.921Z,170
2017-03-17T11:17:10.918Z,200
2017-03-17T11:18:10.940Z,200
2017-03-17T11:19:10.973Z,210
2017-03-17T11:20:11.015Z,230
2017-03-17T11:21:11.030Z,225
2017-03-17T11:22:11.069Z,225
2017-03-17T11:23:11.105Z,295
2017-03-17T11:24:11.123Z,320
2017-03-17T11:25:11.156Z,330
2017-03-17T11:26:11.186Z,315
2017-03-17T11:27:11.249Z,295
2017-03-17T11:28:11.266Z,280
2017-03-17T11:29:11.267Z,265
2017-03-17T11:30:11.317Z,255
2017-03-17T11:31:11.362Z,250
2017-03-17T11:32:11.383Z,245
2017-03-17T11:33:11.405Z,235
2017-03-17T11:34:11.432Z,235
2017-03-17T11:35:11.461Z,225
2017-03-17T11:36:11.526Z,205
2017-03-17T11:37:11.535Z,200
2017-03-17T11:38:11.555Z,215
2017-03-17T11:39:11.578Z,250
2017-03-17T11:40:11.622Z,265
2017-03-17T11:41:11.706Z,305
2017-03-17T11:42:11.694Z,365
2017-03-17T11:43:11.727Z,465
2017-03-17T11:44:11.752Z,500
2017-03-17T11:45:11.780Z,530
2017-03-17T11:46:11.802Z,520
2017-03-17T11:47:11.837Z,415
2017-03-17T11:48:11.863Z,350
2017-03-17T11:49:11.894Z,345
2017-03-17T11:50:11.926Z,335
2017-03-17T11:51:11.959Z,350
2017-03-17T11:52:11.992Z,410
2017-03-17T11:53:12.020Z,430
2017-03-17T11:54:12.054Z,465
2017-03-17T11:55:12.377Z,465
2017-03-17T11:56:12.102Z,465
2017-03-17T11:57:12.127Z,455
2017-03-17T11:58:12.180Z,465
2017-03-17T11:59:12.211Z,475
2017-03-17T12:00:12.681Z,455
2017-03-17T12:01:12.275Z,440
2017-03-17T12:02:12.278Z,435
2017-03-17T12:03:12.335Z,410
2017-03-17T12:04:12.383Z,390
2017-03-17T12:05:12.436Z,380
2017-03-17T12:06:12.433Z,405
2017-03-17T12:07:12.455Z,455
2017-03-17T12:08:12.496Z,480
2017-03-17T12:09:12.553Z,485
2017-03-17T12:10:12.551Z,485
2017-03-17T12:11:12.580Z,480
2017-03-17T12:12:12.613Z,465
2017-03-17T12:13:12.643Z,450
2017-03-17T12:14:12.704Z,430
2017-03-17T12:15:12.712Z,430
2017-03-17T12:16:12.748Z,445
2017-03-17T12:17:12.785Z,420
2017-03-17T12:18:12.783Z,420
2017-03-17T12:19:12.836Z,420
2017-03-17T12:20:12.884Z,450
2017-03-17T12:21:12.896Z,470
2017-03-17T12:22:12.933Z,485
2017-03-17T12:23:13.005Z,485
2017-03-17T12:24:13.015Z,495
2017-03-17T12:25:13.022Z,485
2017-03-17T12:26:13.064Z,530
2017-03-17T12:27:13.104Z,550
2017-03-17T12:28:13.155Z,530
2017-03-17T12:29:13.183Z,510
2017-03-17T12:30:13.179Z,470
2017-03-17T12:31:13.238Z,465
2017-03-17T12:32:13.247Z,480
2017-03-17T12:33:13.309Z,490
2017-03-17T12:34:13.353Z,475
2017-03-17T12:35:13.367Z,470
2017-03-17T12:36:13.408Z,460
2017-03-17T12:37:13.420Z,460
2017-03-17T12:38:13.464Z,465
2017-03-17T12:39:13.490Z,470
2017-03-17T12:40:13.522Z,475
2017-03-17T12:41:13.563Z,435
2017-03-17T12:42:13.612Z,445
2017-03-17T12:43:13.648Z,455
2017-03-17T12:44:13.641Z,455
2017-03-17T12:45:13.696Z,420
2017-03-17T12:46:13.715Z,405
2017-03-17T12:47:13.763Z,380
2017-03-17T12:48:13.792Z,365
2017-03-17T12:49:13.812Z,360
2017-03-17T12:50:13.857Z,370
2017-03-17T12:51:13.863Z,375
2017-03-17T12:52:13.918Z,390
2017-03-17T12:53:13.942Z,395
2017-03-17T12:54:13.978Z,405
2017-03-17T12:55:14.017Z,410
2017-03-17T12:56:14.047Z,410
2017-03-17T12:57:14.084Z,420
2017-03-17T12:58:14.115Z,405
2017-03-17T12:59:14.143Z,395
2017-03-17T13:00:14.178Z,390
2017-03-17T13:01:14.209Z,400
2017-03-17T13:02:14.230Z,405
2017-03-17T13:03:14.256Z,385
2017-03-17T13:04:14.329Z,375
2017-03-17T13:05:14.333Z,385
2017-03-17T13:06:14.384Z,405
2017-03-17T13:07:14.397Z,420
2017-03-17T13:08:14.430Z,425
2017-03-17T13:09:14.477Z,420
2017-03-17T13:10:14.491Z,425
2017-03-17T13:11:14.525Z,415
2017-03-17T13:12:14.560Z,405
2017-03-17T13:13:14.634Z,385
2017-03-17T13:14:14.642Z,390
2017-03-17T13:15:14.646Z,385
2017-03-17T13:16:14.694Z,385
2017-03-17T13:17:14.718Z,375
2017-03-17T13:18:14.755Z,365
2017-03-17T13:19:14.786Z,355
2017-03-17T13:20:14.818Z,365
2017-03-17T13:21:14.853Z,355
2017-03-17T13:22:14.883Z,335
2017-03-17T13:23:14.931Z,330
2017-03-17T13:24:14.932Z,325
2017-03-17T13:25:14.986Z,315
2017-03-17T13:26:15.005Z,300
2017-03-17T13:27:15.051Z,290
2017-03-17T13:28:15.096Z,285
2017-03-17T13:29:15.115Z,280
2017-03-17T13:30:15.235Z,275
2017-03-17T13:31:15.185Z,275
2017-03-17T13:32:15.204Z,280
2017-03-17T13:33:15.243Z,280
2017-03-17T13:34:15.276Z,275
2017-03-17T13:35:15.556Z,270
2017-03-17T13:36:15.338Z,265
2017-03-17T13:37:15.373Z,260
2017-03-17T13:38:15.436Z,255
2017-03-17T13:39:15.422Z,250
2017-03-17T13:40:15.447Z,250
2017-03-17T13:41:15.501Z,250
2017-03-17T13:42:15.515Z,255
2017-03-17T13:43:15.560Z,260
2017-03-17T13:44:15.613Z,255
2017-03-17T13:45:15.631Z,250
2017-03-17T13:46:15.674Z,240
2017-03-17T13:47:15.692Z,235
2017-03-17T13:48:15.740Z,230
2017-03-17T13:49:15.745Z,220
2017-03-17T13:50:15.791Z,215
2017-03-17T13:51:15.807Z,215
2017-03-17T13:52:15.843Z,215
2017-03-17T13:53:15.883Z,220
2017-03-17T13:54:16.069Z,215
2017-03-17T13:55:15.951Z,210
2017-03-17T13:56:15.993Z,210
2017-03-17T13:57:15.995Z,205
2017-03-17T13:58:16.050Z,210
2017-03-17T13:59:16.087Z,215
2017-03-17T14:00:16.107Z,220
2017-03-17T14:01:16.132Z,215
2017-03-17T14:02:16.154Z,205
2017-03-17T14:03:16.189Z,205
2017-03-17T14:04:16.242Z,205
2017-03-17T14:05:16.268Z,210
2017-03-17T14:06:16.287Z,220
2017-03-17T14:07:16.287Z,220
2017-03-17T14:08:16.390Z,220
2017-03-17T14:09:16.387Z,220
2017-03-17T14:10:16.409Z,215
2017-03-17T14:11:16.429Z,215
2017-03-17T14:12:16.483Z,215
2017-03-17T14:13:16.514Z,215